Terminal Aerodrome Forecast
Issued by NWS

Home | Current Version | Previous Version | Text Only | Print | Product List | Glossary Off
Versions: 1 2 3 4 5 6 7 8 9 10 11 12 13 14 15 16 17

000
FTUS45 KGGW 261700
TAFSDY
TAF
KSDY 261726Z 2618/2718 VRB05KT 4SM -SHSN BCFG OVC004
     FM270000 VRB06KT P6SM SCT020 BKN150
     FM270300 VRB03KT 5SM BR OVC007
      AMD LTD TO CLD VIS AND WIND=

USA.gov is the U.S. government's official web portal to all federal, state and local government web resources and services.